Almyra, Arkansas
Current Conditions -  °F | °C
As of 8:15 PM on Saturday 22 Nov 2014 (Local Time) from KSGT Reporting Station
Overcast Overcast  
Wind Chill: 13°   Ceiling: 500
Heat Index: 13°   Visibility: 0.75mi
Dew Point:   Wind: 8mph
Humidity: 77%   Direction: 110°ESE
Pressure: 29.97"   Gusts: NA
Location:  34.41°N, 91.41°W
Report Text: KSGT 230215Z AUTO 11007KT 3/4SM VV005 13/09 A2997 RMK AO1
Loading
Personal Weather Stations






























Interactive Weather Map New forecast layout! Learn more

10-Day Weather Forecast

Advertisements
Track Severe Weather on mobile